Milford, Utah
Current Conditions -  °F | °C
As of 12:52 AM on Tuesday 21 Oct 2014 (Local Time) from KMLF Reporting Station
Clear Clear  
Wind Chill: 54°   Ceiling: Unl
Heat Index: 54°   Visibility: 10mi
Dew Point: 37°   Wind: 9mph
Humidity: 53%   Direction: 200°SSW
Pressure: 29.98"   Gusts: NA
Location:  38.4°N, 113.01°W
Report Text: KMLF 210652Z AUTO 20008KT 10SM CLR 12/03 A2998 RMK AO2 SLP101 T01220028 402500039 TSNO
Loading
Personal Weather Stations






























Interactive Weather Map
Tropical Storm Tracking
New forecast layout! Learn more

10-Day Weather Forecast

Advertisements
Track Severe Weather on mobile